sensor_id;sensor_type;location;lat;lon;timestamp;pressure;altitude;pressure_sealevel;temperature;humidity
8280;BME280;8335;42.646;23.380;2024-03-23T00:54:57;142645.91;;;4.20;74.76
8280;BME280;8335;42.646;23.380;2024-03-23T00:57:23;142633.56;;;4.15;74.42
8280;BME280;8335;42.646;23.380;2024-03-23T00:59:49;142647.13;;;4.21;74.06
8280;BME280;8335;42.646;23.380;2024-03-23T01:02:15;142637.25;;;4.17;74.50
8280;BME280;8335;42.646;23.380;2024-03-23T01:04:41;142616.25;;;4.08;74.03
8280;BME280;8335;42.646;23.380;2024-03-23T01:07:07;142644.66;;;4.20;74.10
8280;BME280;8335;42.646;23.380;2024-03-23T01:09:34;142649.63;;;4.22;73.92
8280;BME280;8335;42.646;23.380;2024-03-23T01:12:01;142649.63;;;4.22;73.82
8280;BME280;8335;42.646;23.380;2024-03-23T01:14:28;142650.88;;;4.22;73.52
8280;BME280;8335;42.646;23.380;2024-03-23T01:16:53;142642.19;;;4.19;73.12
8280;BME280;8335;42.646;23.380;2024-03-23T01:19:20;142633.56;;;4.15;73.29
8280;BME280;8335;42.646;23.380;2024-03-23T01:21:46;142632.34;;;4.14;73.51
8280;BME280;8335;42.646;23.380;2024-03-23T01:24:13;142640.97;;;4.18;72.58
8280;BME280;8335;42.646;23.380;2024-03-23T01:26:40;142631.06;;;4.14;72.96
8280;BME280;8335;42.646;23.380;2024-03-23T01:29:08;142633.56;;;4.15;72.16
8280;BME280;8335;42.646;23.380;2024-03-23T01:31:33;142612.50;;;4.06;72.95
8280;BME280;8335;42.646;23.380;2024-03-23T01:34:00;142592.72;;;3.98;73.60
8280;BME280;8335;42.646;23.380;2024-03-23T01:36:25;142570.50;;;3.89;74.44
8280;BME280;8335;42.646;23.380;2024-03-23T01:38:52;142549.50;;;3.80;75.18
8280;BME280;8335;42.646;23.380;2024-03-23T01:41:18;142547.03;;;3.79;75.68
8280;BME280;8335;42.646;23.380;2024-03-23T01:43:45;142544.50;;;3.78;76.27
8280;BME280;8335;42.646;23.380;2024-03-23T01:46:12;142529.72;;;3.72;76.76
8280;BME280;8335;42.646;23.380;2024-03-23T01:48:39;142511.19;;;3.65;76.85
8280;BME280;8335;42.646;23.380;2024-03-23T01:51:05;142500.06;;;3.60;77.82
8280;BME280;8335;42.646;23.380;2024-03-23T01:53:32;142488.91;;;3.55;78.21
8280;BME280;8335;42.646;23.380;2024-03-23T01:55:57;142476.59;;;3.50;78.68
8280;BME280;8335;42.646;23.380;2024-03-23T01:58:24;142479.06;;;3.51;78.58
8280;BME280;8335;42.646;23.380;2024-03-23T02:00:50;142467.91;;;3.47;78.19
8280;BME280;8335;42.646;23.380;2024-03-23T02:03:24;142440.72;;;3.36;79.00
8280;BME280;8335;42.646;23.380;2024-03-23T02:05:51;142448.16;;;3.39;78.83
8280;BME280;8335;42.646;23.380;2024-03-23T02:08:20;142450.63;;;3.40;78.45
8280;BME280;8335;42.646;23.380;2024-03-23T02:10:46;142433.31;;;3.33;78.49
8280;BME280;8335;42.646;23.380;2024-03-23T02:13:14;142435.78;;;3.34;78.86
8280;BME280;8335;42.646;23.380;2024-03-23T02:15:39;142433.31;;;3.33;79.07
8280;BME280;8335;42.646;23.380;2024-03-23T02:18:07;142443.22;;;3.37;79.15
8280;BME280;8335;42.646;23.380;2024-03-23T02:20:34;142454.31;;;3.41;79.36
8280;BME280;8335;42.646;23.380;2024-03-23T02:23:02;142425.94;;;3.29;80.31
8280;BME280;8335;42.646;23.380;2024-03-23T02:25:28;142444.44;;;3.37;80.00
8280;BME280;8335;42.646;23.380;2024-03-23T02:27:55;142437.00;;;3.34;79.69
8280;BME280;8335;42.646;23.380;2024-03-23T02:30:20;142418.50;;;3.26;81.09
8280;BME280;8335;42.646;23.380;2024-03-23T02:32:47;142409.88;;;3.23;81.14
8280;BME280;8335;42.646;23.380;2024-03-23T02:35:13;142398.72;;;3.18;81.80
8280;BME280;8335;42.646;23.380;2024-03-23T02:37:40;142383.91;;;3.12;81.70
8280;BME280;8335;42.646;23.380;2024-03-23T02:40:07;142374.03;;;3.08;82.25
8280;BME280;8335;42.646;23.380;2024-03-23T02:42:34;142374.03;;;3.08;81.67
8280;BME280;8335;42.646;23.380;2024-03-23T02:45:00;142365.38;;;3.04;81.33
8280;BME280;8335;42.646;23.380;2024-03-23T02:47:26;142357.97;;;3.01;81.88
8280;BME280;8335;42.646;23.380;2024-03-23T02:49:52;142369.06;;;3.06;80.72
8280;BME280;8335;42.646;23.380;2024-03-23T02:52:19;142378.97;;;3.10;79.75
8280;BME280;8335;42.646;23.380;2024-03-23T02:54:45;142386.34;;;3.13;79.74
8280;BME280;8335;42.646;23.380;2024-03-23T02:57:13;142397.50;;;3.18;78.78
8280;BME280;8335;42.646;23.380;2024-03-23T02:59:38;142406.13;;;3.21;77.73
8280;BME280;8335;42.646;23.380;2024-03-23T03:02:05;142399.97;;;3.19;77.30
8280;BME280;8335;42.646;23.380;2024-03-23T03:04:31;142397.50;;;3.18;76.52
8280;BME280;8335;42.646;23.380;2024-03-23T03:06:58;142380.19;;;3.11;76.73
8280;BME280;8335;42.646;23.380;2024-03-23T03:09:24;142350.53;;;2.98;76.57
8280;BME280;8335;42.646;23.380;2024-03-23T03:11:50;142378.97;;;3.10;76.81
8280;BME280;8335;42.646;23.380;2024-03-23T03:14:17;142396.25;;;3.17;75.91
8280;BME280;8335;42.646;23.380;2024-03-23T03:16:45;142398.72;;;3.18;75.75
8280;BME280;8335;42.646;23.380;2024-03-23T03:19:10;142403.66;;;3.20;74.89
8280;BME280;8335;42.646;23.380;2024-03-23T03:21:37;142411.09;;;3.23;74.91
8280;BME280;8335;42.646;23.380;2024-03-23T03:24:05;142408.63;;;3.22;74.92
8280;BME280;8335;42.646;23.380;2024-03-23T03:26:32;142395.03;;;3.17;74.97
8280;BME280;8335;42.646;23.380;2024-03-23T03:28:58;142414.78;;;3.25;73.78
8280;BME280;8335;42.646;23.380;2024-03-23T03:31:26;142418.50;;;3.26;73.04
8280;BME280;8335;42.646;23.380;2024-03-23T03:33:51;142413.56;;;3.24;73.18
8280;BME280;8335;42.646;23.380;2024-03-23T03:36:18;142416.03;;;3.25;72.48
8280;BME280;8335;42.646;23.380;2024-03-23T03:38:44;142417.25;;;3.26;72.40
8280;BME280;8335;42.646;23.380;2024-03-23T03:41:11;142413.56;;;3.24;72.63
8280;BME280;8335;42.646;23.380;2024-03-23T03:43:36;142419.72;;;3.27;72.96
8280;BME280;8335;42.646;23.380;2024-03-23T03:46:03;142419.72;;;3.27;71.84
8280;BME280;8335;42.646;23.380;2024-03-23T03:48:30;142419.72;;;3.27;72.01
8280;BME280;8335;42.646;23.380;2024-03-23T03:50:57;142416.03;;;3.25;72.79
8280;BME280;8335;42.646;23.380;2024-03-23T03:53:23;142401.19;;;3.19;73.30
8280;BME280;8335;42.646;23.380;2024-03-23T03:55:49;142388.81;;;3.14;73.66
8280;BME280;8335;42.646;23.380;2024-03-23T03:58:15;142372.81;;;3.08;74.50
8280;BME280;8335;42.646;23.380;2024-03-23T04:00:42;142369.06;;;3.06;75.62
8280;BME280;8335;42.646;23.380;2024-03-23T04:03:07;142354.25;;;3.00;76.54
8280;BME280;8335;42.646;23.380;2024-03-23T04:05:35;142330.78;;;2.90;76.82
8280;BME280;8335;42.646;23.380;2024-03-23T04:08:01;142322.16;;;2.87;77.81
8280;BME280;8335;42.646;23.380;2024-03-23T04:10:28;142297.44;;;2.76;78.90
8280;BME280;8335;42.646;23.380;2024-03-23T04:12:53;142286.34;;;2.72;78.35
8280;BME280;8335;42.646;23.380;2024-03-23T04:15:20;142283.84;;;2.71;79.09
8280;BME280;8335;42.646;23.380;2024-03-23T04:17:46;142261.63;;;2.62;79.45
8280;BME280;8335;42.646;23.380;2024-03-23T04:20:13;142233.28;;;2.50;80.00
8280;BME280;8335;42.646;23.380;2024-03-23T04:22:43;142227.06;;;2.47;80.26
8280;BME280;8335;42.646;23.380;2024-03-23T04:25:10;142233.28;;;2.50;80.57
8280;BME280;8335;42.646;23.380;2024-03-23T04:27:36;142238.19;;;2.52;80.76
8280;BME280;8335;42.646;23.380;2024-03-23T04:30:03;142235.72;;;2.51;81.11
8280;BME280;8335;42.646;23.380;2024-03-23T04:32:29;142230.75;;;2.49;82.03
8280;BME280;8335;42.646;23.380;2024-03-23T04:34:56;142233.28;;;2.50;81.69
8280;BME280;8335;42.646;23.380;2024-03-23T04:37:22;142229.53;;;2.48;82.73
8280;BME280;8335;42.646;23.380;2024-03-23T04:39:50;142222.13;;;2.45;82.91
8280;BME280;8335;42.646;23.380;2024-03-23T04:42:17;142228.28;;;2.48;82.53
8280;BME280;8335;42.646;23.380;2024-03-23T04:44:43;142253.03;;;2.58;82.78
8280;BME280;8335;42.646;23.380;2024-03-23T04:47:10;142348.06;;;2.97;82.00
8280;BME280;8335;42.646;23.380;2024-03-23T04:49:37;142467.91;;;3.47;79.19
8280;BME280;8335;42.646;23.380;2024-03-23T04:52:04;142671.88;;;4.31;76.06
8280;BME280;8335;42.646;23.380;2024-03-23T04:54:30;142885.88;;;5.19;71.71
8280;BME280;8335;42.646;23.380;2024-03-23T04:56:59;143079.03;;;5.98;67.11
8280;BME280;8335;42.646;23.380;2024-03-23T04:59:25;143252.47;;;6.70;64.17
8280;BME280;8335;42.646;23.380;2024-03-23T05:01:54;143403.69;;;7.32;61.19
8280;BME280;8335;42.646;23.380;2024-03-23T05:04:21;143412.34;;;7.35;59.16
8280;BME280;8335;42.646;23.380;2024-03-23T05:06:46;143360.28;;;7.14;60.25
8280;BME280;8335;42.646;23.380;2024-03-23T05:09:13;143246.28;;;6.67;61.96
8280;BME280;8335;42.646;23.380;2024-03-23T05:11:39;143142.22;;;6.24;62.76
8280;BME280;8335;42.646;23.380;2024-03-23T05:14:07;143071.63;;;5.95;64.29
8280;BME280;8335;42.646;23.380;2024-03-23T05:16:33;142989.84;;;5.62;65.92
8280;BME280;8335;42.646;23.380;2024-03-23T05:18:59;142929.22;;;5.37;67.19
8280;BME280;8335;42.646;23.380;2024-03-23T05:21:26;142887.09;;;5.19;68.42
8280;BME280;8335;42.646;23.380;2024-03-23T05:23:53;142846.28;;;5.03;69.20
8280;BME280;8335;42.646;23.380;2024-03-23T05:26:19;142807.94;;;4.87;69.93
8280;BME280;8335;42.646;23.380;2024-03-23T05:28:46;142768.31;;;4.70;71.10
8280;BME280;8335;42.646;23.380;2024-03-23T05:31:22;142732.47;;;4.56;71.51
8280;BME280;8335;42.646;23.380;2024-03-23T05:33:49;142725.06;;;4.53;72.02
8280;BME280;8335;42.646;23.380;2024-03-23T05:36:14;142718.91;;;4.50;71.85
8280;BME280;8335;42.646;23.380;2024-03-23T05:38:42;142686.72;;;4.37;71.82
8280;BME280;8335;42.646;23.380;2024-03-23T05:41:07;142689.19;;;4.38;72.50
8280;BME280;8335;42.646;23.380;2024-03-23T05:43:34;142701.56;;;4.43;72.63
8280;BME280;8335;42.646;23.380;2024-03-23T05:46:00;142701.56;;;4.43;73.14
8280;BME280;8335;42.646;23.380;2024-03-23T05:48:30;142680.53;;;4.34;73.95
8280;BME280;8335;42.646;23.380;2024-03-23T05:50:56;142660.75;;;4.26;74.00
8280;BME280;8335;42.646;23.380;2024-03-23T05:53:23;142734.94;;;4.57;73.64
8280;BME280;8335;42.646;23.380;2024-03-23T05:55:49;142734.94;;;4.57;73.92
8280;BME280;8335;42.646;23.380;2024-03-23T05:58:17;142749.78;;;4.63;73.77
8280;BME280;8335;42.646;23.380;2024-03-23T06:00:43;142753.53;;;4.64;73.55
8280;BME280;8335;42.646;23.380;2024-03-23T06:03:10;142793.09;;;4.81;73.75
8280;BME280;8335;42.646;23.380;2024-03-23T06:05:37;142816.59;;;4.90;72.91
8280;BME280;8335;42.646;23.380;2024-03-23T06:08:04;142838.84;;;5.00;72.33
8280;BME280;8335;42.646;23.380;2024-03-23T06:10:30;142970.06;;;5.53;71.48
8280;BME280;8335;42.646;23.380;2024-03-23T06:12:57;143298.31;;;6.88;66.76
8280;BME280;8335;42.646;23.380;2024-03-23T06:15:24;143679.09;;;8.45;58.72
8280;BME280;8335;42.646;23.380;2024-03-23T06:17:50;144055.31;;;9.99;53.81
8280;BME280;8335;42.646;23.380;2024-03-23T06:20:16;144427.13;;;11.51;48.39
8280;BME280;8335;42.646;23.380;2024-03-23T06:22:44;144871.66;;;13.33;44.01
8280;BME280;8335;42.646;23.380;2024-03-23T06:25:10;145238.19;;;14.83;40.26
8280;BME280;8335;42.646;23.380;2024-03-23T06:27:38;145511.53;;;15.94;37.32
8280;BME280;8335;42.646;23.380;2024-03-23T06:30:05;145796.34;;;17.11;35.14
8280;BME280;8335;42.646;23.380;2024-03-23T06:32:32;146051.38;;;18.14;33.36
8280;BME280;8335;42.646;23.380;2024-03-23T06:34:58;146317.88;;;19.23;31.77
8280;BME280;8335;42.646;23.380;2024-03-23T06:37:25;146395.44;;;19.55;30.68
8280;BME280;8335;42.646;23.380;2024-03-23T06:39:52;146540.72;;;20.14;29.85
8280;BME280;8335;42.646;23.380;2024-03-23T06:42:19;146667.28;;;20.65;29.34
8280;BME280;8335;42.646;23.380;2024-03-23T06:44:45;146861.56;;;21.44;28.37
8280;BME280;8335;42.646;23.380;2024-03-23T06:47:11;147052.13;;;22.21;27.32
8280;BME280;8335;42.646;23.380;2024-03-23T06:49:37;147193.91;;;22.79;26.63
8280;BME280;8335;42.646;23.380;2024-03-23T06:52:04;147363.34;;;23.48;25.96
8280;BME280;8335;42.646;23.380;2024-03-23T06:54:30;147550.47;;;24.24;25.23
8280;BME280;8335;42.646;23.380;2024-03-23T06:56:58;147720.06;;;24.92;24.07
8280;BME280;8335;42.646;23.380;2024-03-23T06:59:23;147845.81;;;25.43;23.46
8280;BME280;8335;42.646;23.380;2024-03-23T07:01:50;147931.28;;;25.78;22.57
8280;BME280;8335;42.646;23.380;2024-03-23T07:04:16;148008.00;;;26.09;22.45
8280;BME280;8335;42.646;23.380;2024-03-23T07:06:44;148033.13;;;26.19;22.57
8280;BME280;8335;42.646;23.380;2024-03-23T07:09:09;148006.75;;;26.09;22.06
8280;BME280;8335;42.646;23.380;2024-03-23T07:11:36;147997.94;;;26.05;22.24
8280;BME280;8335;42.646;23.380;2024-03-23T07:14:03;148018.03;;;26.13;22.49
8280;BME280;8335;42.646;23.380;2024-03-23T07:16:30;147984.09;;;25.99;22.41
8280;BME280;8335;42.646;23.380;2024-03-23T07:18:56;147925.03;;;25.75;22.26
8280;BME280;8335;42.646;23.380;2024-03-23T07:21:24;147864.66;;;25.51;22.81
8280;BME280;8335;42.646;23.380;2024-03-23T07:23:49;147779.19;;;25.16;22.90
8280;BME280;8335;42.646;23.380;2024-03-23T07:26:16;147755.28;;;25.07;22.94
8280;BME280;8335;42.646;23.380;2024-03-23T07:28:43;147750.28;;;25.05;23.03
8280;BME280;8335;42.646;23.380;2024-03-23T07:31:13;147708.78;;;24.88;22.98
8280;BME280;8335;42.646;23.380;2024-03-23T07:33:42;147717.56;;;24.91;23.37
8280;BME280;8335;42.646;23.380;2024-03-23T07:36:09;147806.81;;;25.28;23.11
8280;BME280;8335;42.646;23.380;2024-03-23T07:38:35;147892.28;;;25.62;22.63
8280;BME280;8335;42.646;23.380;2024-03-23T07:41:05;147808.06;;;25.28;22.73
8280;BME280;8335;42.646;23.380;2024-03-23T07:43:31;147681.13;;;24.77;23.10
8280;BME280;8335;42.646;23.380;2024-03-23T07:45:58;147698.72;;;24.84;23.73
8280;BME280;8335;42.646;23.380;2024-03-23T07:48:25;147721.31;;;24.93;23.25
8280;BME280;8335;42.646;23.380;2024-03-23T07:50:59;147710.03;;;24.88;23.39
8280;BME280;8335;42.646;23.380;2024-03-23T07:53:25;147757.84;;;25.08;22.66
8280;BME280;8335;42.646;23.380;2024-03-23T07:55:54;147623.34;;;24.53;23.28
8280;BME280;8335;42.646;23.380;2024-03-23T07:58:20;147602.00;;;24.45;23.57
8280;BME280;8335;42.646;23.380;2024-03-23T08:00:47;147659.78;;;24.68;23.73
8280;BME280;8335;42.646;23.380;2024-03-23T08:03:12;147667.28;;;24.71;23.00
8280;BME280;8335;42.646;23.380;2024-03-23T08:05:40;147687.44;;;24.79;23.03
8280;BME280;8335;42.646;23.380;2024-03-23T08:08:06;147593.19;;;24.41;23.31
8280;BME280;8335;42.646;23.380;2024-03-23T08:10:33;147507.75;;;24.06;24.21
8280;BME280;8335;42.646;23.380;2024-03-23T08:12:58;147478.91;;;23.95;24.30
8280;BME280;8335;42.646;23.380;2024-03-23T08:15:25;147473.84;;;23.93;24.51
8280;BME280;8335;42.646;23.380;2024-03-23T08:17:51;147408.59;;;23.66;24.29
8280;BME280;8335;42.646;23.380;2024-03-23T08:20:17;147374.66;;;23.52;24.60
8280;BME280;8335;42.646;23.380;2024-03-23T08:22:44;147378.41;;;23.54;24.31
8280;BME280;8335;42.646;23.380;2024-03-23T08:25:11;147318.19;;;23.29;24.71
8280;BME280;8335;42.646;23.380;2024-03-23T08:27:37;147251.66;;;23.02;24.94
8280;BME280;8335;42.646;23.380;2024-03-23T08:30:04;147162.53;;;22.66;25.69
8280;BME280;8335;42.646;23.380;2024-03-23T08:32:30;147177.59;;;22.72;25.65
8280;BME280;8335;42.646;23.380;2024-03-23T08:34:57;147278.00;;;23.13;25.08
8280;BME280;8335;42.646;23.380;2024-03-23T08:37:22;147364.59;;;23.48;24.95
8280;BME280;8335;42.646;23.380;2024-03-23T08:39:52;147457.53;;;23.86;24.16
8280;BME280;8335;42.646;23.380;2024-03-23T08:42:18;147530.38;;;24.15;24.43
8280;BME280;8335;42.646;23.380;2024-03-23T08:44:46;147482.66;;;23.96;24.44
8280;BME280;8335;42.646;23.380;2024-03-23T08:47:14;147504.00;;;24.05;24.94
8280;BME280;8335;42.646;23.380;2024-03-23T08:49:41;147588.19;;;24.39;23.94
8280;BME280;8335;42.646;23.380;2024-03-23T08:52:07;147591.94;;;24.40;24.18
8280;BME280;8335;42.646;23.380;2024-03-23T08:54:33;147598.22;;;24.43;24.11
8280;BME280;8335;42.646;23.380;2024-03-23T08:57:01;147645.94;;;24.62;23.53
8280;BME280;8335;42.646;23.380;2024-03-23T08:59:27;147614.53;;;24.50;23.55
8280;BME280;8335;42.646;23.380;2024-03-23T09:01:53;147556.75;;;24.26;23.94
8280;BME280;8335;42.646;23.380;2024-03-23T09:04:20;147511.56;;;24.08;24.10
8280;BME280;8335;42.646;23.380;2024-03-23T09:06:46;147439.94;;;23.79;24.21
8280;BME280;8335;42.646;23.380;2024-03-23T09:09:13;147355.84;;;23.45;24.19
8280;BME280;8335;42.646;23.380;2024-03-23T09:11:39;147319.44;;;23.30;24.42
8280;BME280;8335;42.646;23.380;2024-03-23T09:14:07;147379.66;;;23.54;24.08
8280;BME280;8335;42.646;23.380;2024-03-23T09:16:34;147476.41;;;23.94;24.57
8280;BME280;8335;42.646;23.380;2024-03-23T09:19:00;147495.22;;;24.01;24.13
8280;BME280;8335;42.646;23.380;2024-03-23T09:21:26;147472.59;;;23.92;24.39
8280;BME280;8335;42.646;23.380;2024-03-23T09:23:53;147520.31;;;24.11;24.39
8280;BME280;8335;42.646;23.380;2024-03-23T09:26:19;147461.31;;;23.87;24.25
8280;BME280;8335;42.646;23.380;2024-03-23T09:28:48;147486.41;;;23.98;23.73
8280;BME280;8335;42.646;23.380;2024-03-23T09:31:15;147525.31;;;24.13;23.50
8280;BME280;8335;42.646;23.380;2024-03-23T09:33:42;147608.28;;;24.47;23.42
8280;BME280;8335;42.646;23.380;2024-03-23T09:36:08;147686.13;;;24.79;23.08
8280;BME280;8335;42.646;23.380;2024-03-23T09:38:35;147557.97;;;24.27;23.14
8280;BME280;8335;42.646;23.380;2024-03-23T09:41:03;147483.91;;;23.97;23.64
8280;BME280;8335;42.646;23.380;2024-03-23T09:43:33;147467.59;;;23.90;23.40
8280;BME280;8335;42.646;23.380;2024-03-23T09:45:59;147496.47;;;24.02;23.36
8280;BME280;8335;42.646;23.380;2024-03-23T09:48:27;147460.06;;;23.87;23.32
8280;BME280;8335;42.646;23.380;2024-03-23T09:50:53;147426.16;;;23.73;23.97
8280;BME280;8335;42.646;23.380;2024-03-23T09:53:19;147370.91;;;23.51;24.02
8280;BME280;8335;42.646;23.380;2024-03-23T09:55:45;147384.66;;;23.56;23.76
8280;BME280;8335;42.646;23.380;2024-03-23T09:58:12;147362.09;;;23.47;22.96
8280;BME280;8335;42.646;23.380;2024-03-23T10:00:38;147330.69;;;23.34;23.97
8280;BME280;8335;42.646;23.380;2024-03-23T10:03:05;147265.47;;;23.08;23.38
8280;BME280;8335;42.646;23.380;2024-03-23T10:05:33;147276.75;;;23.13;23.38
8280;BME280;8335;42.646;23.380;2024-03-23T10:08:00;147265.47;;;23.08;24.31
8280;BME280;8335;42.646;23.380;2024-03-23T10:10:42;147355.84;;;23.45;23.71
8280;BME280;8335;42.646;23.380;2024-03-23T10:13:09;147374.66;;;23.52;23.64
8280;BME280;8335;42.646;23.380;2024-03-23T10:15:36;147423.66;;;23.72;24.01
8280;BME280;8335;42.646;23.380;2024-03-23T10:18:17;147404.78;;;23.65;23.85
8280;BME280;8335;42.646;23.380;2024-03-23T10:20:50;147455.03;;;23.85;24.16
8280;BME280;8335;42.646;23.380;2024-03-23T10:23:17;147522.81;;;24.12;23.64
8280;BME280;8335;42.646;23.380;2024-03-23T10:25:43;147676.13;;;24.75;22.69
8280;BME280;8335;42.646;23.380;2024-03-23T10:28:11;147681.13;;;24.77;22.72
8280;BME280;8335;42.646;23.380;2024-03-23T10:30:37;147552.97;;;24.25;23.14
8280;BME280;8335;42.646;23.380;2024-03-23T10:33:07;147419.88;;;23.71;23.57
8280;BME280;8335;42.646;23.380;2024-03-23T10:35:33;147339.50;;;23.38;24.78
8280;BME280;8335;42.646;23.380;2024-03-23T10:38:02;147250.41;;;23.02;24.37
8280;BME280;8335;42.646;23.380;2024-03-23T10:40:29;147377.16;;;23.53;23.61
8280;BME280;8335;42.646;23.380;2024-03-23T10:42:58;147525.31;;;24.13;23.78
8280;BME280;8335;42.646;23.380;2024-03-23T10:45:24;147519.06;;;24.11;23.34
8280;BME280;8335;42.646;23.380;2024-03-23T10:47:51;147536.66;;;24.18;23.16
8280;BME280;8335;42.646;23.380;2024-03-23T10:50:17;147429.94;;;23.75;23.42
8280;BME280;8335;42.646;23.380;2024-03-23T10:52:46;147354.59;;;23.44;23.74
8280;BME280;8335;42.646;23.380;2024-03-23T10:55:17;147369.59;;;23.50;22.96
8280;BME280;8335;42.646;23.380;2024-03-23T10:57:47;147388.47;;;23.58;23.12
8280;BME280;8335;42.646;23.380;2024-03-23T11:00:15;147421.13;;;23.71;23.18
8280;BME280;8335;42.646;23.380;2024-03-23T11:02:42;147360.84;;;23.47;23.01
8280;BME280;8335;42.646;23.380;2024-03-23T11:05:28;147261.69;;;23.06;23.29
8280;BME280;8335;42.646;23.380;2024-03-23T11:07:55;147192.63;;;22.78;24.52
8280;BME280;8335;42.646;23.380;2024-03-23T11:10:27;147178.84;;;22.73;23.92
8280;BME280;8335;42.646;23.380;2024-03-23T11:12:55;147232.84;;;22.95;24.64
8280;BME280;8335;42.646;23.380;2024-03-23T11:15:21;147239.09;;;22.97;24.57
8280;BME280;8335;42.646;23.380;2024-03-23T11:18:03;147171.31;;;22.70;24.55
8280;BME280;8335;42.646;23.380;2024-03-23T11:20:34;146978.13;;;21.91;24.29
8280;BME280;8335;42.646;23.380;2024-03-23T11:23:00;146768.75;;;21.06;25.46
8280;BME280;8335;42.646;23.380;2024-03-23T11:25:28;146671.03;;;20.67;25.78
8280;BME280;8335;42.646;23.380;2024-03-23T11:27:56;146620.94;;;20.46;26.55
8280;BME280;8335;42.646;23.380;2024-03-23T11:30:23;146520.69;;;20.05;26.90
8280;BME280;8335;42.646;23.380;2024-03-23T11:32:51;146426.81;;;19.67;27.22
8280;BME280;8335;42.646;23.380;2024-03-23T11:35:27;146369.19;;;19.44;27.84
8280;BME280;8335;42.646;23.380;2024-03-23T11:38:04;146280.34;;;19.08;28.34
8280;BME280;8335;42.646;23.380;2024-03-23T11:40:32;146255.28;;;18.97;29.02
8280;BME280;8335;42.646;23.380;2024-03-23T11:43:01;146197.75;;;18.74;28.86
8280;BME280;8335;42.646;23.380;2024-03-23T11:45:27;146182.72;;;18.68;29.01
8280;BME280;8335;42.646;23.380;2024-03-23T11:48:04;146185.22;;;18.69;30.31
8280;BME280;8335;42.646;23.380;2024-03-23T11:50:30;146170.16;;;18.63;29.37
8280;BME280;8335;42.646;23.380;2024-03-23T11:53:07;146133.91;;;18.48;29.59
8280;BME280;8335;42.646;23.380;2024-03-23T11:55:43;146092.63;;;18.31;29.27
8280;BME280;8335;42.646;23.380;2024-03-23T11:58:10;146101.38;;;18.35;30.39
8280;BME280;8335;42.646;23.380;2024-03-23T12:00:36;146102.63;;;18.35;29.41
8280;BME280;8335;42.646;23.380;2024-03-23T12:03:03;146093.88;;;18.32;29.57
8280;BME280;8335;42.646;23.380;2024-03-23T12:05:30;146068.91;;;18.22;29.58
8280;BME280;8335;42.646;23.380;2024-03-23T12:08:15;146090.16;;;18.30;32.70
8280;BME280;8335;42.646;23.380;2024-03-23T12:10:44;146096.38;;;18.33;30.14
8280;BME280;8335;42.646;23.380;2024-03-23T12:13:10;146081.38;;;18.27;29.78
8280;BME280;8335;42.646;23.380;2024-03-23T12:15:36;146051.38;;;18.14;29.66
8280;BME280;8335;42.646;23.380;2024-03-23T12:18:07;146071.38;;;18.23;29.92
8280;BME280;8335;42.646;23.380;2024-03-23T12:20:32;146091.38;;;18.31;30.49
8280;BME280;8335;42.646;23.380;2024-03-23T12:23:05;146061.38;;;18.19;29.75
8280;BME280;8335;42.646;23.380;2024-03-23T12:25:31;146058.88;;;18.18;29.99
8280;BME280;8335;42.646;23.380;2024-03-23T12:27:59;146017.63;;;18.01;30.00
8280;BME280;8335;42.646;23.380;2024-03-23T12:30:25;146010.09;;;17.98;30.18
8280;BME280;8335;42.646;23.380;2024-03-23T12:32:52;146046.34;;;18.12;30.14
8280;BME280;8335;42.646;23.380;2024-03-23T12:35:17;146058.88;;;18.18;30.95
8280;BME280;8335;42.646;23.380;2024-03-23T12:37:44;146077.63;;;18.25;30.97
8280;BME280;8335;42.646;23.380;2024-03-23T12:40:10;146087.66;;;18.29;30.26
8280;BME280;8335;42.646;23.380;2024-03-23T12:42:37;146103.88;;;18.36;29.59
8280;BME280;8335;42.646;23.380;2024-03-23T12:45:05;146113.88;;;18.40;29.73
8280;BME280;8335;42.646;23.380;2024-03-23T12:47:31;146096.38;;;18.33;29.63
8280;BME280;8335;42.646;23.380;2024-03-23T12:49:57;146100.13;;;18.34;28.98
8280;BME280;8335;42.646;23.380;2024-03-23T12:52:24;146073.88;;;18.24;29.14
8280;BME280;8335;42.646;23.380;2024-03-23T12:54:54;146051.38;;;18.14;29.22
8280;BME280;8335;42.646;23.380;2024-03-23T12:57:22;146040.13;;;18.10;28.76
8280;BME280;8335;42.646;23.380;2024-03-23T12:59:47;146046.34;;;18.12;29.13
8280;BME280;8335;42.646;23.380;2024-03-23T13:02:18;146046.34;;;18.12;29.56
8280;BME280;8335;42.646;23.380;2024-03-23T13:04:45;146055.13;;;18.16;28.28
8280;BME280;8335;42.646;23.380;2024-03-23T13:07:11;146085.09;;;18.28;26.62
8280;BME280;8335;42.646;23.380;2024-03-23T13:09:38;146083.84;;;18.28;27.72
8280;BME280;8335;42.646;23.380;2024-03-23T13:12:05;146078.88;;;18.26;27.89
8280;BME280;8335;42.646;23.380;2024-03-23T13:14:31;146073.88;;;18.24;29.23
8280;BME280;8335;42.646;23.380;2024-03-23T13:16:57;146090.16;;;18.30;26.50
8280;BME280;8335;42.646;23.380;2024-03-23T13:19:24;146081.38;;;18.27;26.33
8280;BME280;8335;42.646;23.380;2024-03-23T13:21:53;146065.09;;;18.20;26.84
8280;BME280;8335;42.646;23.380;2024-03-23T13:24:21;146072.63;;;18.23;25.95
8280;BME280;8335;42.646;23.380;2024-03-23T13:26:49;146071.38;;;18.23;26.66
8280;BME280;8335;42.646;23.380;2024-03-23T13:29:15;146056.38;;;18.17;26.74
8280;BME280;8335;42.646;23.380;2024-03-23T13:31:42;146078.88;;;18.26;26.41
8280;BME280;8335;42.646;23.380;2024-03-23T13:34:08;146090.16;;;18.30;26.02
8280;BME280;8335;42.646;23.380;2024-03-23T13:36:36;146093.88;;;18.32;26.24
8280;BME280;8335;42.646;23.380;2024-03-23T13:39:01;146127.66;;;18.46;26.16
8280;BME280;8335;42.646;23.380;2024-03-23T13:41:31;146147.66;;;18.54;26.51
8280;BME280;8335;42.646;23.380;2024-03-23T13:43:57;146150.16;;;18.55;25.91
8280;BME280;8335;42.646;23.380;2024-03-23T13:46:23;146158.94;;;18.58;24.75
8280;BME280;8335;42.646;23.380;2024-03-23T13:48:49;146140.19;;;18.51;25.08
8280;BME280;8335;42.646;23.380;2024-03-23T13:51:23;146153.91;;;18.56;24.67
8280;BME280;8335;42.646;23.380;2024-03-23T13:53:51;146128.91;;;18.46;24.76
8280;BME280;8335;42.646;23.380;2024-03-23T13:56:17;146133.91;;;18.48;24.22
8280;BME280;8335;42.646;23.380;2024-03-23T13:58:43;146107.66;;;18.37;24.02